CCA1362 ZJHK-ZBAA
Flight info
| Callsign | CCA1362 |
|---|---|
| Flight time | N/A |
| Altitude | 33100 |
| Route | AGTEL9XD AGTEL W71 LH R339 BHY W159 IVPUB W120 ENKUS DCT JW W2 SJG W102 EMVIL W284 UPSIK W4 VADMO W56 DUGEB DUGEB5D |
| Aircraft | B38M/M-SDE1FGHILORVWXY/HB1 |
Departure
| Time | N/A |
|---|---|
| Airport | Haikou Meilan International Airport (ZJHK) |
Arrival
| Time | 2026-05-01 08:40 |
|---|---|
| Airport | Beijing Capital International Airport (ZBAA) |
| Time | Latitude | Longitude | Altitude | Speed | Heading |
|---|---|---|---|---|---|
| 2026-05-01 07:23 | 34.26453 | 110.93684 | 32987 ft | 477 kts | 19° |
| 2026-05-01 07:24 | 34.35432 | 110.98912 | 32985 ft | 478 kts | 20° |
| 2026-05-01 07:24 | 34.41323 | 111.02584 | 32970 ft | 484 kts | 31° |
| 2026-05-01 07:24 | 34.43818 | 111.05388 | 32974 ft | 492 kts | 48° |
| 2026-05-01 07:25 | 34.45727 | 111.08807 | 32994 ft | 497 kts | 55° |
| 2026-05-01 07:25 | 34.49406 | 111.15941 | 32975 ft | 497 kts | 55° |
| 2026-05-01 07:26 | 34.53020 | 111.23069 | 32980 ft | 498 kts | 55° |
| 2026-05-01 07:26 | 34.56634 | 111.30215 | 32985 ft | 498 kts | 55° |
| 2026-05-01 07:27 | 34.60252 | 111.37386 | 32983 ft | 497 kts | 56° |
| 2026-05-01 07:27 | 34.63871 | 111.44570 | 32979 ft | 497 kts | 56° |
| 2026-05-01 07:28 | 34.67455 | 111.51704 | 32981 ft | 497 kts | 56° |
| 2026-05-01 07:28 | 34.71039 | 111.58848 | 32974 ft | 497 kts | 55° |
| 2026-05-01 07:29 | 34.74636 | 111.66037 | 32981 ft | 497 kts | 55° |
| 2026-05-01 07:29 | 34.78209 | 111.73189 | 32986 ft | 497 kts | 55° |
| 2026-05-01 07:30 | 34.81811 | 111.80414 | 32987 ft | 497 kts | 55° |
| 2026-05-01 07:30 | 34.85379 | 111.87582 | 32981 ft | 497 kts | 55° |
| 2026-05-01 07:31 | 34.88983 | 111.94769 | 32990 ft | 497 kts | 54° |
| 2026-05-01 07:32 | 34.97990 | 112.12705 | 32975 ft | 496 kts | 54° |
| 2026-05-01 07:33 | 35.03372 | 112.23467 | 32983 ft | 497 kts | 55° |
| 2026-05-01 07:33 | 35.08744 | 112.34242 | 32985 ft | 496 kts | 55° |
| 2026-05-01 07:34 | 35.14109 | 112.45037 | 32995 ft | 496 kts | 55° |
| 2026-05-01 07:35 | 35.17697 | 112.52276 | 32992 ft | 497 kts | 55° |
| 2026-05-01 07:35 | 35.21291 | 112.59483 | 32993 ft | 496 kts | 54° |
| 2026-05-01 07:36 | 35.24891 | 112.66643 | 32997 ft | 496 kts | 54° |
| 2026-05-01 07:36 | 35.28482 | 112.73810 | 32995 ft | 495 kts | 54° |
| 2026-05-01 07:37 | 35.33871 | 112.84590 | 33010 ft | 495 kts | 55° |
| 2026-05-01 07:37 | 35.37465 | 112.91800 | 33012 ft | 494 kts | 55° |
| 2026-05-01 07:38 | 35.41048 | 112.98999 | 33008 ft | 494 kts | 55° |
| 2026-05-01 07:39 | 35.46403 | 113.09792 | 33025 ft | 494 kts | 55° |
| 2026-05-01 07:39 | 35.51737 | 113.20573 | 33025 ft | 495 kts | 55° |
| 2026-05-01 07:40 | 35.55316 | 113.27827 | 33036 ft | 496 kts | 55° |
| 2026-05-01 07:40 | 35.58896 | 113.35095 | 33034 ft | 497 kts | 55° |
| 2026-05-01 07:41 | 35.62502 | 113.42295 | 33030 ft | 497 kts | 54° |
| 2026-05-01 07:42 | 35.67987 | 113.53126 | 33039 ft | 498 kts | 54° |
| 2026-05-01 07:42 | 35.71629 | 113.60339 | 33039 ft | 500 kts | 54° |
| 2026-05-01 07:42 | 35.73463 | 113.63975 | 32922 ft | 499 kts | 54° |
| 2026-05-01 07:43 | 35.75295 | 113.67620 | 32999 ft | 497 kts | 54° |
| 2026-05-01 07:43 | 35.80748 | 113.78476 | 33009 ft | 497 kts | 54° |
| 2026-05-01 07:44 | 35.88010 | 113.92987 | 33001 ft | 497 kts | 54° |
| 2026-05-01 07:45 | 35.91622 | 114.00230 | 32993 ft | 497 kts | 54° |
| 2026-05-01 07:45 | 35.95223 | 114.07464 | 32987 ft | 496 kts | 54° |
| 2026-05-01 07:46 | 35.98847 | 114.14759 | 32978 ft | 496 kts | 54° |
| 2026-05-01 07:47 | 36.04233 | 114.25632 | 32975 ft | 495 kts | 54° |
| 2026-05-01 07:47 | 36.07807 | 114.32865 | 32970 ft | 495 kts | 55° |
| 2026-05-01 07:48 | 36.13179 | 114.43767 | 32970 ft | 495 kts | 55° |
| 2026-05-01 07:48 | 36.17292 | 114.50439 | 32970 ft | 481 kts | 35° |
| 2026-05-01 07:49 | 36.24556 | 114.59159 | 32970 ft | 486 kts | 40° |
| 2026-05-01 07:50 | 36.29350 | 114.65069 | 32963 ft | 486 kts | 39° |
| 2026-05-01 07:50 | 36.36556 | 114.73838 | 32964 ft | 482 kts | 32° |
| 2026-05-01 07:51 | 36.39360 | 114.75963 | 32963 ft | 467 kts | 18° |
| 2026-05-01 07:51 | 36.42306 | 114.77708 | 32962 ft | 471 kts | 19° |
| 2026-05-01 07:52 | 36.51184 | 114.82976 | 32958 ft | 471 kts | 18° |
| 2026-05-01 07:52 | 36.57118 | 114.86422 | 32956 ft | 471 kts | 18° |
| 2026-05-01 07:53 | 36.66029 | 114.91598 | 32958 ft | 471 kts | 18° |
| 2026-05-01 07:53 | 36.71962 | 114.95052 | 32954 ft | 471 kts | 18° |
| 2026-05-01 07:55 | 36.86772 | 115.03699 | 32957 ft | 470 kts | 18° |
| 2026-05-01 07:56 | 37.01563 | 115.12372 | 32956 ft | 469 kts | 19° |
| 2026-05-01 07:57 | 37.10405 | 115.17575 | 32958 ft | 469 kts | 19° |
| 2026-05-01 07:58 | 37.22222 | 115.24549 | 32955 ft | 469 kts | 19° |
| 2026-05-01 07:59 | 37.33973 | 115.31509 | 32958 ft | 468 kts | 19° |
| 2026-05-01 08:00 | 37.51634 | 115.42013 | 32955 ft | 468 kts | 19° |
| 2026-05-01 08:01 | 37.63396 | 115.49040 | 32948 ft | 468 kts | 18° |
| 2026-05-01 08:02 | 37.72170 | 115.54297 | 32948 ft | 467 kts | 18° |
| 2026-05-01 08:03 | 37.81154 | 115.58371 | 32946 ft | 438 kts | 353° |
| 2026-05-01 08:03 | 37.90254 | 115.58060 | 32947 ft | 436 kts | 349° |
| 2026-05-01 08:04 | 38.02305 | 115.57221 | 32945 ft | 434 kts | 348° |
| 2026-05-01 08:05 | 38.11335 | 115.56622 | 32894 ft | 426 kts | 348° |
| 2026-05-01 08:05 | 38.14282 | 115.56428 | 32474 ft | 421 kts | 348° |
| 2026-05-01 08:06 | 38.20093 | 115.56043 | 31508 ft | 418 kts | 348° |
| 2026-05-01 08:06 | 38.25970 | 115.55896 | 30526 ft | 434 kts | 1° |
| 2026-05-01 08:07 | 38.31758 | 115.58685 | 29518 ft | 458 kts | 19° |
| 2026-05-01 08:07 | 38.37490 | 115.62253 | 28388 ft | 459 kts | 20° |
| 2026-05-01 08:08 | 38.40350 | 115.64053 | 27852 ft | 459 kts | 20° |
| 2026-05-01 08:08 | 38.46077 | 115.67662 | 26802 ft | 458 kts | 20° |
| 2026-05-01 08:09 | 38.51516 | 115.71898 | 25755 ft | 468 kts | 42° |
| 2026-05-01 08:09 | 38.53404 | 115.75316 | 25251 ft | 475 kts | 61° |
| 2026-05-01 08:09 | 38.54501 | 115.79298 | 24767 ft | 476 kts | 76° |
| 2026-05-01 08:10 | 38.55826 | 115.87499 | 23815 ft | 465 kts | 76° |
| 2026-05-01 08:10 | 38.57227 | 115.95452 | 22759 ft | 454 kts | 75° |
| 2026-05-01 08:11 | 38.58615 | 116.03197 | 21652 ft | 446 kts | 75° |
| 2026-05-01 08:11 | 38.59987 | 116.10848 | 20585 ft | 438 kts | 76° |
| 2026-05-01 08:12 | 38.61333 | 116.18382 | 19550 ft | 431 kts | 76° |
| 2026-05-01 08:12 | 38.61995 | 116.22101 | 19047 ft | 428 kts | 76° |
| 2026-05-01 08:12 | 38.63304 | 116.29472 | 18538 ft | 424 kts | 76° |
| 2026-05-01 08:13 | 38.63958 | 116.33156 | 18534 ft | 425 kts | 76° |
| 2026-05-01 08:13 | 38.64776 | 116.36750 | 18532 ft | 423 kts | 64° |
| 2026-05-01 08:13 | 38.67601 | 116.43346 | 18545 ft | 422 kts | 57° |
| 2026-05-01 08:14 | 38.69106 | 116.46576 | 18545 ft | 422 kts | 57° |
| 2026-05-01 08:14 | 38.70626 | 116.49781 | 18545 ft | 422 kts | 56° |
| 2026-05-01 08:14 | 38.72142 | 116.52943 | 18545 ft | 421 kts | 56° |
| 2026-05-01 08:14 | 38.73682 | 116.56135 | 18550 ft | 421 kts | 56° |
| 2026-05-01 08:15 | 38.75245 | 116.59369 | 18551 ft | 421 kts | 56° |
| 2026-05-01 08:15 | 38.78296 | 116.65687 | 18551 ft | 420 kts | 56° |
| 2026-05-01 08:15 | 38.79831 | 116.68868 | 18558 ft | 419 kts | 56° |
| 2026-05-01 08:16 | 38.81365 | 116.72050 | 18555 ft | 419 kts | 56° |
| 2026-05-01 08:16 | 38.82895 | 116.75229 | 18563 ft | 419 kts | 56° |
| 2026-05-01 08:16 | 38.84424 | 116.78409 | 18563 ft | 419 kts | 56° |
| 2026-05-01 08:16 | 38.85954 | 116.81594 | 18561 ft | 418 kts | 56° |
| 2026-05-01 08:17 | 38.87477 | 116.84766 | 18569 ft | 418 kts | 56° |
| 2026-05-01 08:17 | 38.89004 | 116.87949 | 18568 ft | 418 kts | 56° |
| 2026-05-01 08:17 | 38.90470 | 116.91012 | 18570 ft | 418 kts | 56° |
| 2026-05-01 08:17 | 38.91990 | 116.94185 | 18571 ft | 418 kts | 56° |
| 2026-05-01 08:18 | 38.93511 | 116.97367 | 18575 ft | 418 kts | 56° |
| 2026-05-01 08:18 | 38.96551 | 117.03688 | 17905 ft | 413 kts | 53° |
| 2026-05-01 08:19 | 39.01048 | 117.07663 | 16936 ft | 394 kts | 12° |
| 2026-05-01 08:19 | 39.03717 | 117.08177 | 16624 ft | 382 kts | 357° |
| 2026-05-01 08:19 | 39.06345 | 117.07849 | 16586 ft | 380 kts | 348° |
| 2026-05-01 08:19 | 39.08972 | 117.07377 | 16586 ft | 382 kts | 349° |
| 2026-05-01 08:20 | 39.11611 | 117.06921 | 16587 ft | 382 kts | 349° |
| 2026-05-01 08:20 | 39.14244 | 117.06471 | 16581 ft | 382 kts | 349° |
| 2026-05-01 08:20 | 39.16883 | 117.06021 | 16580 ft | 382 kts | 349° |
| 2026-05-01 08:20 | 39.19520 | 117.05571 | 16584 ft | 382 kts | 349° |
| 2026-05-01 08:21 | 39.22160 | 117.05120 | 16257 ft | 384 kts | 349° |
| 2026-05-01 08:21 | 39.24791 | 117.04671 | 15825 ft | 381 kts | 349° |
| 2026-05-01 08:21 | 39.27407 | 117.04222 | 15383 ft | 378 kts | 349° |
| 2026-05-01 08:21 | 39.30003 | 117.03777 | 14953 ft | 375 kts | 349° |
| 2026-05-01 08:22 | 39.32591 | 117.03334 | 14514 ft | 373 kts | 349° |
| 2026-05-01 08:22 | 39.35155 | 117.02893 | 14089 ft | 371 kts | 349° |
| 2026-05-01 08:22 | 39.37705 | 117.02442 | 13796 ft | 365 kts | 346° |
| 2026-05-01 08:22 | 39.40125 | 117.01519 | 13711 ft | 364 kts | 338° |
| 2026-05-01 08:23 | 39.42529 | 117.00478 | 13688 ft | 364 kts | 338° |
| 2026-05-01 08:23 | 39.44926 | 116.99424 | 13680 ft | 364 kts | 338° |
| 2026-05-01 08:23 | 39.46514 | 116.98719 | 13680 ft | 365 kts | 338° |
| 2026-05-01 08:23 | 39.48909 | 116.97650 | 13676 ft | 364 kts | 338° |
| 2026-05-01 08:24 | 39.51308 | 116.96573 | 13678 ft | 364 kts | 338° |
| 2026-05-01 08:24 | 39.53684 | 116.95506 | 13686 ft | 358 kts | 337° |
| 2026-05-01 08:24 | 39.56014 | 116.94458 | 13682 ft | 354 kts | 338° |
| 2026-05-01 08:24 | 39.59073 | 116.93082 | 13682 ft | 352 kts | 338° |
| 2026-05-01 08:25 | 39.61404 | 116.92140 | 13672 ft | 348 kts | 346° |
| 2026-05-01 08:25 | 39.63018 | 116.91846 | 13685 ft | 346 kts | 349° |
| 2026-05-01 08:25 | 39.65366 | 116.91478 | 13684 ft | 344 kts | 350° |
| 2026-05-01 08:25 | 39.67733 | 116.91113 | 13678 ft | 338 kts | 350° |
| 2026-05-01 08:26 | 39.70052 | 116.90759 | 13684 ft | 324 kts | 350° |
| 2026-05-01 08:26 | 39.72262 | 116.90422 | 13396 ft | 318 kts | 350° |
| 2026-05-01 08:26 | 39.74409 | 116.90096 | 12935 ft | 311 kts | 350° |
| 2026-05-01 08:26 | 39.76537 | 116.89773 | 12471 ft | 306 kts | 350° |
| 2026-05-01 08:27 | 39.78645 | 116.89453 | 12037 ft | 303 kts | 349° |
| 2026-05-01 08:27 | 39.80732 | 116.89136 | 11567 ft | 301 kts | 349° |
| 2026-05-01 08:27 | 39.82801 | 116.88822 | 11124 ft | 298 kts | 350° |
| 2026-05-01 08:27 | 39.84834 | 116.88513 | 10693 ft | 297 kts | 349° |
| 2026-05-01 08:28 | 39.86905 | 116.88197 | 10264 ft | 295 kts | 350° |
| 2026-05-01 08:28 | 39.88943 | 116.87888 | 9829 ft | 294 kts | 350° |
| 2026-05-01 08:28 | 39.90971 | 116.87577 | 9360 ft | 293 kts | 350° |
| 2026-05-01 08:28 | 39.92982 | 116.87272 | 9056 ft | 286 kts | 349° |
| 2026-05-01 08:29 | 39.94936 | 116.86975 | 8973 ft | 282 kts | 350° |
| 2026-05-01 08:29 | 39.96876 | 116.86679 | 8969 ft | 280 kts | 349° |
| 2026-05-01 08:29 | 39.98815 | 116.86383 | 8948 ft | 280 kts | 350° |
| 2026-05-01 08:29 | 40.00671 | 116.85867 | 8920 ft | 275 kts | 334° |
| 2026-05-01 08:30 | 40.02331 | 116.84677 | 8912 ft | 273 kts | 326° |
| 2026-05-01 08:30 | 40.04006 | 116.83473 | 8535 ft | 275 kts | 328° |
| 2026-05-01 08:30 | 40.05683 | 116.82293 | 8037 ft | 274 kts | 328° |
| 2026-05-01 08:30 | 40.07356 | 116.81123 | 7552 ft | 272 kts | 328° |
| 2026-05-01 08:31 | 40.09024 | 116.79958 | 7078 ft | 270 kts | 328° |
| 2026-05-01 08:31 | 40.10681 | 116.78797 | 6609 ft | 269 kts | 328° |
| 2026-05-01 08:31 | 40.12319 | 116.77652 | 6120 ft | 269 kts | 329° |
| 2026-05-01 08:31 | 40.13976 | 116.76497 | 5647 ft | 268 kts | 330° |
| 2026-05-01 08:32 | 40.15616 | 116.75351 | 5132 ft | 269 kts | 330° |
| 2026-05-01 08:32 | 40.17277 | 116.74184 | 4614 ft | 272 kts | 332° |
| 2026-05-01 08:32 | 40.18949 | 116.73011 | 4135 ft | 273 kts | 331° |
| 2026-05-01 08:32 | 40.20603 | 116.71848 | 3986 ft | 267 kts | 331° |
| 2026-05-01 08:33 | 40.22276 | 116.71056 | 3999 ft | 252 kts | 351° |
| 2026-05-01 08:33 | 40.24014 | 116.70744 | 3944 ft | 250 kts | 353° |
| 2026-05-01 08:33 | 40.25715 | 116.70467 | 3865 ft | 243 kts | 354° |
| 2026-05-01 08:33 | 40.27335 | 116.70092 | 3835 ft | 240 kts | 339° |
| 2026-05-01 08:34 | 40.28663 | 116.68853 | 3770 ft | 234 kts | 304° |
| 2026-05-01 08:34 | 40.29274 | 116.66928 | 3742 ft | 229 kts | 271° |
| 2026-05-01 08:34 | 40.29253 | 116.64852 | 3816 ft | 230 kts | 262° |
| 2026-05-01 08:34 | 40.29133 | 116.62751 | 3824 ft | 231 kts | 262° |
| 2026-05-01 08:35 | 40.28813 | 116.60729 | 3806 ft | 224 kts | 239° |
| 2026-05-01 08:35 | 40.27838 | 116.59220 | 3739 ft | 215 kts | 208° |
| 2026-05-01 08:35 | 40.26468 | 116.58614 | 3654 ft | 203 kts | 180° |
| 2026-05-01 08:35 | 40.25108 | 116.58722 | 3445 ft | 191 kts | 171° |
| 2026-05-01 08:36 | 40.23818 | 116.58943 | 3153 ft | 182 kts | 171° |
| 2026-05-01 08:36 | 40.22585 | 116.59148 | 2883 ft | 177 kts | 172° |
| 2026-05-01 08:36 | 40.21376 | 116.59334 | 2625 ft | 169 kts | 171° |
| 2026-05-01 08:36 | 40.20273 | 116.59508 | 2387 ft | 155 kts | 173° |
| 2026-05-01 08:37 | 40.19258 | 116.59667 | 2248 ft | 145 kts | 171° |
| 2026-05-01 08:37 | 40.18260 | 116.59822 | 2027 ft | 144 kts | 172° |
| 2026-05-01 08:37 | 40.17275 | 116.59979 | 1806 ft | 142 kts | 172° |
| 2026-05-01 08:37 | 40.16290 | 116.60130 | 1606 ft | 143 kts | 172° |
| 2026-05-01 08:38 | 40.15292 | 116.60290 | 1407 ft | 146 kts | 172° |
| 2026-05-01 08:38 | 40.14286 | 116.60444 | 1175 ft | 145 kts | 171° |
| 2026-05-01 08:38 | 40.13280 | 116.60602 | 992 ft | 146 kts | 171° |
| 2026-05-01 08:38 | 40.12281 | 116.60766 | 791 ft | 142 kts | 171° |
| 2026-05-01 08:39 | 40.11294 | 116.60919 | 567 ft | 144 kts | 172° |
| 2026-05-01 08:39 | 40.10296 | 116.61075 | 385 ft | 144 kts | 172° |
| 2026-05-01 08:39 | 40.09312 | 116.61231 | 174 ft | 144 kts | 172° |
| 2026-05-01 08:39 | 40.08408 | 116.61379 | 126 ft | 104 kts | 174° |
| 2026-05-01 08:40 | 40.07406 | 116.61531 | 123 ft | 60 kts | 173° |
| 2026-05-01 08:40 | 40.07126 | 116.61574 | 124 ft | 30 kts | 173° |
| 2026-05-01 08:40 | 40.06948 | 116.61574 | 124 ft | 26 kts | 191° |
| 2026-05-01 08:41 | 40.06806 | 116.61512 | 123 ft | 23 kts | 203° |
| 2026-05-01 08:41 | 40.06654 | 116.61431 | 125 ft | 19 kts | 195° |
| 2026-05-01 08:41 | 40.06518 | 116.61433 | 123 ft | 17 kts | 174° |
| 2026-05-01 08:41 | 40.06394 | 116.61434 | 122 ft | 15 kts | 214° |
| 2026-05-01 08:42 | 40.06365 | 116.61309 | 122 ft | 16 kts | 263° |
| 2026-05-01 08:42 | 40.06350 | 116.61161 | 122 ft | 18 kts | 262° |
| 2026-05-01 08:42 | 40.06337 | 116.60996 | 122 ft | 16 kts | 262° |
| 2026-05-01 08:42 | 40.06323 | 116.60845 | 126 ft | 18 kts | 264° |
| 2026-05-01 08:43 | 40.06307 | 116.60675 | 122 ft | 20 kts | 261° |
| 2026-05-01 08:43 | 40.06273 | 116.60533 | 126 ft | 17 kts | 210° |
| 2026-05-01 08:43 | 40.06151 | 116.60536 | 125 ft | 19 kts | 175° |
| 2026-05-01 08:43 | 40.06028 | 116.60557 | 126 ft | 16 kts | 172° |
| 2026-05-01 08:44 | 40.05912 | 116.60573 | 123 ft | 18 kts | 173° |
| 2026-05-01 08:44 | 40.05793 | 116.60594 | 126 ft | 17 kts | 173° |
| 2026-05-01 08:44 | 40.05693 | 116.60608 | 124 ft | 9 kts | 171° |
| 2026-05-01 08:44 | 40.05660 | 116.60650 | 126 ft | 6 kts | 96° |
| 2026-05-01 08:45 | 40.05661 | 116.60692 | 126 ft | 4 kts | 85° |
| 2026-05-01 08:45 | 40.05666 | 116.60729 | 126 ft | 3 kts | 70° |
| 2026-05-01 08:45 | 40.05669 | 116.60739 | 126 ft | 1 kts | 67° |
| 2026-05-01 08:45 | 40.05674 | 116.60752 | 126 ft | 2 kts | 65° |